Time;durP1;ratioP1;P1;durP2;ratioP2;P2;SDS_P1;SDS_P2;PMS_P1;PMS_P2;Temp;Humidity;BMP_temperature;BMP_pressure;BME280_temperature;BME280_humidity;BME280_pressure;Samples;Min_cycle;Max_cycle;Signal;HPM_P1;HPM_P2
2022/07/07 00:00:12;;;;;;;10.38;8.27;;;18.70;99.90;;;;;;6224700;22;20011;-87
2022/07/07 00:02:38;;;;;;;12.93;8.32;;;18.70;99.90;;;;;;6222433;22;20019;-89
2022/07/07 00:05:10;;;;;;;14.32;8.63;;;18.70;99.90;;;;;;6278029;22;20011;-89
2022/07/07 00:07:37;;;;;;;15.30;8.70;;;18.70;99.90;;;;;;6251512;22;20011;-87
2022/07/07 00:10:04;;;;;;;11.82;7.70;;;18.60;99.90;;;;;;6227359;22;20015;-92
2022/07/07 00:12:30;;;;;;;14.90;7.35;;;18.50;99.90;;;;;;6251800;22;20011;-91
2022/07/07 00:14:56;;;;;;;10.57;7.38;;;18.70;99.90;;;;;;6252930;22;20373;-90
2022/07/07 00:17:21;;;;;;;8.90;6.95;;;18.50;99.90;;;;;;6252613;22;20682;-89
2022/07/07 00:19:47;;;;;;;12.70;7.40;;;18.50;99.90;;;;;;6251267;22;20455;-89
2022/07/07 00:22:14;;;;;;;8.20;6.60;;;18.40;99.90;;;;;;6200669;22;20011;-88
2022/07/07 00:24:42;;;;;;;8.93;6.65;;;18.50;99.90;;;;;;6278660;22;20008;-89
2022/07/07 00:27:11;;;;;;;10.82;6.88;;;18.50;99.90;;;;;;6253711;22;20014;-91
2022/07/07 00:29:37;;;;;;;10.25;6.57;;;18.30;99.90;;;;;;6254554;22;20011;-91
2022/07/07 00:32:03;;;;;;;9.52;6.05;;;18.30;99.90;;;;;;6254392;22;20465;-90
2022/07/07 00:34:29;;;;;;;10.80;6.65;;;18.20;99.90;;;;;;6256303;22;20090;-87
2022/07/07 00:36:55;;;;;;;9.20;5.82;;;18.40;99.90;;;;;;6229859;22;20104;-90
2022/07/07 00:39:20;;;;;;;12.65;6.88;;;18.10;99.90;;;;;;6228699;22;20428;-90
2022/07/07 00:41:46;;;;;;;7.95;5.75;;;18.40;99.90;;;;;;6254944;22;20011;-89
2022/07/07 00:44:18;;;;;;;7.47;5.40;;;18.30;99.90;;;;;;6256455;22;20015;-89
2022/07/07 00:46:45;;;;;;;10.77;6.13;;;18.10;99.90;;;;;;6256373;22;20011;-90
2022/07/07 00:49:13;;;;;;;8.93;5.75;;;18.10;99.90;;;;;;6229615;22;20011;-90
2022/07/07 00:51:43;;;;;;;9.90;5.63;;;18.10;99.90;;;;;;6229515;22;20046;-90
2022/07/07 00:54:10;;;;;;;9.05;5.70;;;18.20;99.90;;;;;;6254230;22;20289;-90
2022/07/07 00:56:41;;;;;;;9.75;6.90;;;18.10;99.90;;;;;;6228983;22;20344;-91
2022/07/07 00:59:13;;;;;;;8.52;5.93;;;17.80;99.90;;;;;;6229315;22;20019;-89
2022/07/07 01:01:43;;;;;;;7.25;5.28;;;18.10;99.90;;;;;;6252606;22;20086;-88
2022/07/07 01:04:12;;;;;;;5.47;3.75;;;18.20;99.90;;;;;;6280899;22;20447;-89
2022/07/07 01:06:41;;;;;;;5.18;3.60;;;17.90;99.90;;;;;;6254917;22;20064;-89
2022/07/07 01:09:10;;;;;;;3.80;3.13;;;17.80;99.90;;;;;;6231267;22;20022;-88
2022/07/07 01:11:50;;;;;;;4.30;2.67;;;18.20;99.90;;;;;;6230057;22;20011;-88
2022/07/07 01:14:17;;;;;;;4.40;2.78;;;17.70;99.90;;;;;;6255900;22;20452;-89
2022/07/07 01:16:44;;;;;;;3.97;2.90;;;17.70;99.90;;;;;;6256358;22;20017;-88
2022/07/07 01:19:15;;;;;;;6.25;3.00;;;17.80;99.90;;;;;;6256097;22;20019;-90
2022/07/07 01:21:55;;;;;;;6.63;3.03;;;17.00;99.90;;;;;;6254086;22;20731;-88
2022/07/07 01:24:22;;;;;;;6.43;3.10;;;17.80;99.90;;;;;;6255653;22;20007;-91
2022/07/07 01:26:48;;;;;;;5.50;3.20;;;17.80;99.90;;;;;;6256681;22;20041;-88
2022/07/07 01:29:14;;;;;;;4.90;3.28;;;17.50;99.90;;;;;;6256784;22;20019;-91
2022/07/07 01:31:40;;;;;;;7.22;3.63;;;17.50;99.90;;;;;;6205739;22;20022;-91
2022/07/07 01:34:06;;;;;;;7.68;3.53;;;17.70;99.90;;;;;;6231786;22;20348;-92
2022/07/07 01:36:32;;;;;;;6.43;3.38;;;17.70;99.90;;;;;;6280702;22;20022;-88
2022/07/07 01:38:58;;;;;;;8.13;3.70;;;17.80;99.90;;;;;;6279702;22;20077;-93
2022/07/07 01:41:26;;;;;;;6.30;3.50;;;17.60;99.90;;;;;;6253214;22;20018;-91
2022/07/07 01:43:55;;;;;;;6.10;3.20;;;17.80;99.90;;;;;;6250844;22;20467;-91
2022/07/07 01:46:23;;;;;;;6.65;3.20;;;17.80;99.90;;;;;;6278743;22;20019;-89
2022/07/07 01:49:03;;;;;;;6.32;3.40;;;17.90;99.90;;;;;;6253883;22;20011;-89
2022/07/07 01:52:03;;;;;;;8.05;4.00;;;17.80;99.90;;;;;;6284310;22;20019;-91
2022/07/07 01:54:44;;;;;;;5.82;3.08;;;18.00;99.90;;;;;;6181368;23;20199;-90
2022/07/07 01:57:10;;;;;;;10.15;5.10;;;17.80;99.90;;;;;;6205061;22;20421;-89
2022/07/07 01:59:37;;;;;;;12.10;4.60;;;17.90;99.90;;;;;;6254012;22;20015;-90
2022/07/07 02:02:12;;;;;;;10.27;4.50;;;17.90;99.90;;;;;;6253058;22;20022;-90
2022/07/07 02:04:53;;;;;;;8.60;4.38;;;18.00;99.90;;;;;;6253911;22;20012;-90
2022/07/07 02:07:19;;;;;;;7.13;3.55;;;18.20;99.90;;;;;;6255057;22;20011;-88
2022/07/07 02:09:51;;;;;;;12.23;3.90;;;18.00;99.90;;;;;;6254642;22;20090;-89
2022/07/07 02:12:17;;;;;;;6.93;4.10;;;18.00;99.90;;;;;;6257910;22;20015;-86
2022/07/07 02:14:47;;;;;;;7.40;4.30;;;18.10;99.90;;;;;;6239677;22;20011;-89
2022/07/07 02:17:13;;;;;;;14.23;4.90;;;18.00;99.90;;;;;;6234040;22;20007;-88
2022/07/07 02:19:48;;;;;;;7.90;4.43;;;18.30;99.90;;;;;;6279934;22;20026;-87
2022/07/07 02:22:29;;;;;;;12.18;3.85;;;18.30;99.90;;;;;;6204900;22;20434;-89
2022/07/07 02:25:01;;;;;;;7.53;3.95;;;18.20;99.90;;;;;;6202966;22;20016;-89
2022/07/07 02:27:36;;;;;;;11.27;4.00;;;18.30;99.90;;;;;;6254112;22;20026;-88
2022/07/07 02:30:08;;;;;;;7.10;3.53;;;17.80;99.90;;;;;;6255508;22;20030;-87
2022/07/07 02:32:34;;;;;;;7.57;3.78;;;18.40;99.90;;;;;;6279437;22;20029;-89
2022/07/07 02:35:01;;;;;;;6.53;3.38;;;18.20;99.90;;;;;;6253998;22;20093;-86
2022/07/07 02:37:30;;;;;;;7.10;3.65;;;18.40;99.90;;;;;;6278925;22;20078;-89
2022/07/07 02:39:59;;;;;;;7.47;3.30;;;18.40;99.90;;;;;;6253716;22;20019;-88
2022/07/07 02:42:30;;;;;;;8.35;3.53;;;18.50;99.90;;;;;;6253762;22;20007;-89
2022/07/07 02:45:01;;;;;;;8.63;3.33;;;18.50;99.90;;;;;;6233442;22;20030;-87
2022/07/07 02:47:29;;;;;;;10.70;4.10;;;18.40;99.90;;;;;;6227150;22;20536;-86
2022/07/07 02:49:55;;;;;;;11.88;4.15;;;18.30;99.90;;;;;;6228430;22;20011;-86
2022/07/07 02:52:21;;;;;;;9.15;3.72;;;18.40;99.90;;;;;;6253697;22;20004;-88
2022/07/07 02:54:46;;;;;;;6.63;3.50;;;18.40;99.90;;;;;;6253620;22;20018;-91
2022/07/07 02:57:13;;;;;;;7.38;3.15;;;18.40;99.90;;;;;;6228744;22;20696;-87
2022/07/07 02:59:41;;;;;;;7.72;3.17;;;18.60;99.90;;;;;;6278972;22;20090;-87
2022/07/07 03:02:10;;;;;;;7.63;3.20;;;18.40;99.90;;;;;;6252997;22;20057;-89
2022/07/07 03:04:38;;;;;;;9.10;3.10;;;18.40;99.90;;;;;;6254176;22;20016;-89
2022/07/07 03:07:09;;;;;;;13.75;3.03;;;18.30;99.90;;;;;;6253743;22;20017;-88
2022/07/07 03:09:38;;;;;;;9.23;2.83;;;18.50;99.90;;;;;;6252329;22;20017;-88
2022/07/07 03:12:07;;;;;;;8.40;3.03;;;18.50;99.90;;;;;;6253147;22;20098;-90
2022/07/07 03:14:41;;;;;;;5.85;2.72;;;18.60;99.90;;;;;;6229467;22;20022;-88
2022/07/07 03:17:07;;;;;;;9.57;3.10;;;18.70;99.90;;;;;;6251882;22;20015;-91
2022/07/07 03:31:04;;;;;;;12.45;3.03;;;18.80;99.90;;;;;;6065120;23;20102;-88
2022/07/07 03:44:52;;;;;;;6.05;1.30;;;17.90;99.90;;;;;;6181699;23;20016;-87
2022/07/07 03:54:48;;;;;;;5.03;1.25;;;17.90;99.90;;;;;;6273904;22;20106;-88
2022/07/07 03:58:13;;;;;;;7.60;1.15;;;17.80;99.90;;;;;;6257619;22;20072;-89
2022/07/07 04:04:39;;;;;;;7.63;1.10;;;18.00;99.90;;;;;;6181526;23;20032;-90
2022/07/07 04:07:21;;;;;;;;;;;18.00;99.90;;;;;;6152001;23;20013;-90
2022/07/07 04:09:49;;;;;;;3.65;1.23;;;17.00;99.90;;;;;;6149582;23;20017;-90
2022/07/07 04:12:42;;;;;;;5.97;1.30;;;17.50;99.90;;;;;;6175276;23;20017;-92
2022/07/07 04:15:24;;;;;;;6.13;1.20;;;17.50;99.90;;;;;;6201443;22;20016;-91
2022/07/07 04:18:08;;;;;;;4.60;1.02;;;17.10;99.90;;;;;;6202639;22;20019;-94
2022/07/07 04:20:48;;;;;;;2.88;1.10;;;17.30;99.90;;;;;;6227431;22;20472;-90
2022/07/07 04:26:32;;;;;;;6.60;1.52;;;16.90;99.90;;;;;;6222949;22;20016;-90
2022/07/07 04:29:02;;;;;;;11.02;1.80;;;17.00;99.90;;;;;;6205032;22;20517;-90
2022/07/07 04:31:43;;;;;;;9.07;2.00;;;17.40;99.90;;;;;;6235529;22;20022;-89
2022/07/07 04:38:04;;;;;;;10.25;2.33;;;16.90;99.90;;;;;;6278911;22;20026;-89
2022/07/07 04:40:56;;;;;;;10.63;2.25;;;17.40;99.90;;;;;;6226510;22;20039;-92
2022/07/07 04:43:59;;;;;;;8.73;1.83;;;16.80;99.90;;;;;;6213378;22;20016;-90
2022/07/07 04:46:37;;;;;;;5.25;1.50;;;16.80;99.90;;;;;;6205956;22;20016;-90
2022/07/07 04:49:41;;;;;;;11.20;2.50;;;16.80;99.90;;;;;;6267466;22;20079;-90
2022/07/07 04:52:10;;;;;;;6.22;1.70;;;16.20;99.90;;;;;;6226193;22;20397;-90
2022/07/07 04:54:45;;;;;;;5.68;1.50;;;16.80;99.90;;;;;;6226854;22;20012;-90
2022/07/07 04:57:36;;;;;;;7.10;1.88;;;16.90;99.90;;;;;;6189081;23;20792;-88
2022/07/07 05:00:40;;;;;;;8.18;1.73;;;17.20;99.90;;;;;;6164575;23;20103;-90
2022/07/07 05:03:24;;;;;;;7.72;1.60;;;17.50;99.90;;;;;;6158839;23;20017;-89
2022/07/07 05:06:21;;;;;;;6.50;1.40;;;16.70;99.90;;;;;;6157407;23;20027;-92
2022/07/07 05:08:50;;;;;;;4.50;1.88;;;16.70;99.90;;;;;;6117795;23;20023;-90
2022/07/07 05:11:22;;;;;;;6.20;1.90;;;15.80;99.90;;;;;;6141640;23;20019;-90
2022/07/07 05:13:56;;;;;;;6.05;1.95;;;16.40;99.90;;;;;;6160548;23;20113;-89
2022/07/07 05:19:26;;;;;;;7.07;2.10;;;16.70;99.90;;;;;;6140641;23;20032;-88
2022/07/07 05:21:55;;;;;;;8.20;1.90;;;16.60;99.90;;;;;;6134398;23;20020;-89
2022/07/07 05:24:41;;;;;;;10.38;2.97;;;16.70;99.90;;;;;;6135517;23;20016;-91
2022/07/07 05:27:26;;;;;;;8.68;1.80;;;16.60;99.90;;;;;;6115551;23;20008;-90
2022/07/07 05:29:55;;;;;;;6.60;2.17;;;16.50;99.90;;;;;;6220352;23;20039;-90
2022/07/07 05:32:29;;;;;;;6.85;1.90;;;16.10;99.90;;;;;;6197445;23;20012;-92
2022/07/07 05:34:55;;;;;;;;;;;16.20;99.90;;;;;;6221281;23;20016;-88
2022/07/07 05:37:36;;;;;;;6.53;1.98;;;15.40;99.90;;;;;;6195579;23;19912;-91
2022/07/07 05:40:15;;;;;;;8.38;2.03;;;16.10;99.90;;;;;;6219897;23;20030;-90
2022/07/07 05:42:44;;;;;;;5.53;1.83;;;16.30;99.90;;;;;;6218927;23;20008;-91
2022/07/07 05:45:22;;;;;;;13.23;2.33;;;16.30;99.90;;;;;;6218088;23;20012;-91
2022/07/07 05:47:52;;;;;;;6.78;1.70;;;15.90;99.90;;;;;;6219850;23;20019;-92
2022/07/07 05:50:23;;;;;;;6.88;2.38;;;15.80;99.90;;;;;;6220541;23;20039;-91
2022/07/07 05:52:52;;;;;;;12.68;2.92;;;16.10;99.90;;;;;;6221064;23;20085;-90
2022/07/07 05:56:04;;;;;;;8.73;2.95;;;16.10;99.90;;;;;;6176223;23;20341;-90
2022/07/07 05:58:48;;;;;;;9.68;2.15;;;15.90;99.90;;;;;;6218768;23;20046;-88
2022/07/07 06:01:17;;;;;;;6.80;2.60;;;16.00;99.90;;;;;;6152230;23;20791;-89
2022/07/07 06:03:49;;;;;;;8.98;2.28;;;17.00;99.90;;;;;;6219529;23;20238;-91
2022/07/07 06:06:25;;;;;;;6.45;1.80;;;16.00;99.90;;;;;;6221349;22;20027;-90
2022/07/07 06:08:51;;;;;;;10.65;2.00;;;16.50;99.90;;;;;;6217039;22;20023;-90
2022/07/07 06:14:45;;;;;;;10.95;2.33;;;16.10;99.90;;;;;;6244243;23;20499;-89
2022/07/07 06:17:11;;;;;;;8.00;2.50;;;16.10;99.90;;;;;;6220293;23;20020;-88
2022/07/07 06:19:37;;;;;;;7.90;2.17;;;16.30;99.90;;;;;;6221087;22;20016;-89
2022/07/07 06:22:03;;;;;;;7.38;2.08;;;16.10;99.90;;;;;;6221978;23;20376;-88
2022/07/07 06:24:29;;;;;;;6.93;1.85;;;16.30;99.90;;;;;;6219806;23;20393;-88
2022/07/07 06:26:58;;;;;;;6.28;1.80;;;16.00;99.90;;;;;;6245578;23;20012;-88
2022/07/07 06:29:27;;;;;;;7.78;1.88;;;16.20;99.90;;;;;;6219618;23;20012;-89
2022/07/07 06:32:04;;;;;;;5.93;1.75;;;16.30;99.90;;;;;;6248055;23;20402;-90
2022/07/07 06:34:30;;;;;;;7.50;1.67;;;16.30;99.90;;;;;;6197478;23;20016;-91
2022/07/07 06:37:03;;;;;;;4.63;1.45;;;16.10;99.90;;;;;;6221999;23;20039;-89
2022/07/07 06:39:39;;;;;;;6.78;1.58;;;16.10;99.90;;;;;;6247469;22;20016;-89
2022/07/07 06:42:06;;;;;;;6.00;1.67;;;16.50;99.90;;;;;;6173447;23;20013;-91
2022/07/07 06:44:33;;;;;;;5.80;1.60;;;16.60;99.90;;;;;;6224537;23;20014;-89
2022/07/07 06:47:32;;;;;;;7.45;1.50;;;16.50;99.90;;;;;;6222610;23;20055;-92
2022/07/07 06:50:01;;;;;;;3.28;1.50;;;16.00;99.90;;;;;;6227223;23;20074;-86
2022/07/07 06:52:27;;;;;;;4.82;1.50;;;16.00;99.90;;;;;;6227470;23;20085;-87
2022/07/07 06:55:06;;;;;;;5.63;1.45;;;15.70;99.90;;;;;;6250995;23;20012;-90
2022/07/07 06:57:39;;;;;;;6.03;1.40;;;16.70;99.90;;;;;;6248168;22;20040;-89
2022/07/07 07:00:21;;;;;;;9.50;1.88;;;16.90;99.90;;;;;;6249369;23;20008;-88
2022/07/07 07:02:56;;;;;;;7.00;1.45;;;17.10;99.90;;;;;;6248188;22;20015;-91
2022/07/07 07:05:28;;;;;;;6.90;1.42;;;16.90;99.90;;;;;;6228893;23;20023;-88
2022/07/07 07:07:57;;;;;;;7.03;1.77;;;16.80;99.90;;;;;;6240505;23;20016;-90
2022/07/07 07:10:23;;;;;;;6.53;1.40;;;16.80;99.90;;;;;;6237338;23;20043;-89
2022/07/07 07:12:49;;;;;;;6.28;1.42;;;16.80;99.90;;;;;;6219960;23;20082;-88
2022/07/07 07:15:25;;;;;;;5.43;1.23;;;16.90;99.90;;;;;;6245620;23;20015;-90
2022/07/07 07:17:53;;;;;;;3.22;1.23;;;17.00;99.90;;;;;;6244237;23;20574;-90
2022/07/07 07:20:29;;;;;;;4.05;1.50;;;16.70;99.90;;;;;;6248540;22;20067;-90
2022/07/07 07:23:09;;;;;;;4.35;1.00;;;16.50;99.90;;;;;;6172169;23;20329;-92
2022/07/07 07:25:49;;;;;;;4.38;0.90;;;16.70;99.90;;;;;;6220655;23;20070;-90
2022/07/07 07:31:46;;;;;;;2.60;1.10;;;16.20;99.90;;;;;;6212319;23;20070;-91
2022/07/07 07:37:43;;;;;;;3.20;1.05;;;17.10;99.90;;;;;;6246700;23;20016;-89
2022/07/07 07:40:12;;;;;;;5.18;1.60;;;16.90;99.90;;;;;;6173319;23;20412;-92
2022/07/07 07:42:58;;;;;;;3.70;0.90;;;16.60;99.90;;;;;;6222220;22;20012;-91
2022/07/07 07:49:20;;;;;;;3.03;0.90;;;15.70;99.90;;;;;;6197804;23;20024;-92
2022/07/07 07:52:05;;;;;;;3.25;0.60;;;16.50;99.90;;;;;;6192988;23;20483;-91
2022/07/07 07:54:45;;;;;;;1.67;0.88;;;16.40;99.90;;;;;;6190036;23;20051;-93
2022/07/07 08:01:08;;;;;;;3.60;0.77;;;16.80;99.90;;;;;;6133261;23;20141;-90
2022/07/07 08:06:57;;;;;;;5.18;1.10;;;17.40;99.90;;;;;;6148394;23;20104;-94
2022/07/07 08:09:26;;;;;;;4.10;0.77;;;17.00;99.90;;;;;;6162546;23;20017;-90
2022/07/07 08:11:55;;;;;;;2.97;0.70;;;16.80;99.90;;;;;;6167867;23;20024;-92
2022/07/07 08:14:30;;;;;;;3.47;0.95;;;16.80;99.90;;;;;;6199966;23;20048;-93
2022/07/07 08:20:53;;;;;;;2.88;0.90;;;17.00;99.90;;;;;;6198644;23;20051;-94
2022/07/07 08:23:43;;;;;;;3.25;1.00;;;17.60;99.90;;;;;;6200094;23;20016;-94
2022/07/07 08:27:09;;;;;;;3.95;0.85;;;17.60;99.90;;;;;;6203020;23;20047;-91
2022/07/07 08:43:27;;;;;;;4.95;1.17;;;17.30;99.90;;;;;;5875969;24;20102;-92
2022/07/07 08:46:08;;;;;;;6.63;1.60;;;16.80;99.90;;;;;;5945290;24;20012;-91
2022/07/07 08:49:09;;;;;;;;;;;;;;;;;;;;;
2022/07/07 08:59:49;;;;;;;7.00;1.60;;;17.20;99.90;;;;;;5872980;24;20026;-93
2022/07/07 09:03:07;;;;;;;;;;;;;;;;;;;;;
2022/07/07 09:05:52;;;;;;;4.80;1.48;;;17.80;99.90;;;;;;6064545;23;20019;-90
2022/07/07 09:08:34;;;;;;;4.88;1.60;;;17.40;99.90;;;;;;6075639;23;20097;-90
2022/07/07 09:11:00;;;;;;;6.30;1.60;;;18.30;99.90;;;;;;6083192;23;20017;-90
2022/07/07 09:14:06;;;;;;;5.97;1.50;;;18.40;99.90;;;;;;6140600;23;20017;-90
2022/07/07 09:17:43;;;;;;;;;;;;;;;;;;;;;
2022/07/07 09:20:47;;;;;;;3.00;1.02;;;17.00;99.90;;;;;;6254041;23;20062;-92
2022/07/07 09:23:22;;;;;;;;;;;16.50;99.90;;;;;;6200703;23;20410;-91
2022/07/07 09:25:49;;;;;;;5.35;1.10;;;16.30;99.90;;;;;;6225655;23;19942;-90
2022/07/07 09:28:18;;;;;;;4.72;1.40;;;16.40;99.90;;;;;;6226845;22;20408;-89
2022/07/07 09:30:49;;;;;;;4.05;1.25;;;17.80;99.90;;;;;;6218513;23;20091;-93
2022/07/07 09:33:19;;;;;;;5.55;1.33;;;17.70;99.90;;;;;;6250037;22;20341;-92
2022/07/07 09:39:09;;;;;;;7.20;2.15;;;18.20;99.90;;;;;;6248083;23;20452;-91
2022/07/07 09:41:35;;;;;;;7.82;1.92;;;18.00;99.90;;;;;;6222949;23;20012;-91
2022/07/07 09:44:05;;;;;;;3.60;1.08;;;17.60;99.90;;;;;;6197133;23;20012;-91
2022/07/07 09:46:42;;;;;;;4.80;1.70;;;17.50;99.90;;;;;;6222274;23;20011;-91
2022/07/07 09:49:12;;;;;;;3.55;1.13;;;17.30;99.90;;;;;;6247696;23;20016;-92
2022/07/07 09:51:38;;;;;;;3.55;1.20;;;17.40;99.90;;;;;;6221324;23;20016;-91
2022/07/07 09:54:10;;;;;;;3.42;1.15;;;17.60;99.90;;;;;;6246682;23;20012;-91
2022/07/07 09:56:41;;;;;;;3.85;1.10;;;17.40;99.90;;;;;;6222350;23;20012;-90
2022/07/07 09:59:12;;;;;;;9.82;1.42;;;17.60;99.90;;;;;;6221663;23;20019;-90
2022/07/07 10:01:44;;;;;;;6.75;1.73;;;17.50;99.90;;;;;;6223186;23;20012;-88
2022/07/07 10:04:14;;;;;;;5.72;1.52;;;17.50;99.90;;;;;;6222313;23;20008;-90
2022/07/07 10:06:42;;;;;;;7.25;2.00;;;17.50;99.90;;;;;;6172268;23;20016;-91
2022/07/07 10:09:20;;;;;;;6.00;1.85;;;17.80;99.90;;;;;;6222705;23;20453;-89
2022/07/07 10:11:50;;;;;;;6.93;1.58;;;17.70;99.90;;;;;;6221778;23;20071;-92
2022/07/07 10:14:35;;;;;;;6.45;1.35;;;17.40;99.90;;;;;;6222344;23;20016;-91
2022/07/07 10:17:01;;;;;;;;;;;17.30;99.90;;;;;;6222583;23;20019;-92
2022/07/07 10:19:36;;;;;;;9.20;1.92;;;17.10;99.90;;;;;;6221784;23;19916;-92
2022/07/07 10:22:10;;;;;;;7.57;1.50;;;17.00;99.90;;;;;;6221285;23;20044;-92
2022/07/07 10:24:41;;;;;;;7.30;2.17;;;17.10;99.90;;;;;;6221612;23;20349;-91
2022/07/07 10:27:13;;;;;;;6.00;2.20;;;16.80;99.90;;;;;;6221431;23;20091;-92
2022/07/07 10:29:50;;;;;;;9.52;1.73;;;16.60;99.90;;;;;;6220876;23;20494;-92
2022/07/07 10:32:50;;;;;;;8.15;1.92;;;16.40;99.90;;;;;;6246415;23;20777;-89
2022/07/07 10:35:19;;;;;;;8.70;1.85;;;16.50;99.90;;;;;;6222585;23;20019;-92
2022/07/07 10:37:50;;;;;;;8.70;1.88;;;16.60;99.90;;;;;;6249257;23;20022;-90
2022/07/07 10:40:42;;;;;;;11.30;2.63;;;16.70;99.90;;;;;;6223916;23;20113;-88
2022/07/07 10:43:45;;;;;;;14.65;2.95;;;16.50;99.90;;;;;;6221644;23;20424;-91
2022/07/07 10:46:23;;;;;;;11.35;2.83;;;16.30;99.90;;;;;;6221908;23;20479;-89
2022/07/07 10:49:12;;;;;;;9.40;2.47;;;16.50;99.90;;;;;;6220361;23;20019;-89
2022/07/07 10:52:08;;;;;;;13.63;2.30;;;16.40;99.90;;;;;;6221031;23;20044;-91
2022/07/07 10:54:59;;;;;;;11.50;2.33;;;16.60;99.90;;;;;;6222159;23;20078;-92
2022/07/07 10:57:46;;;;;;;6.90;2.30;;;16.60;99.90;;;;;;6244738;23;20028;-93
2022/07/07 11:00:28;;;;;;;7.57;2.22;;;16.70;99.90;;;;;;6222104;23;20337;-92
2022/07/07 11:03:10;;;;;;;8.88;2.15;;;16.70;99.90;;;;;;6246869;23;20091;-90
2022/07/07 11:05:37;;;;;;;10.57;2.25;;;17.00;99.90;;;;;;6220669;23;20384;-90
2022/07/07 11:08:17;;;;;;;5.30;1.70;;;16.90;99.90;;;;;;6247016;22;20452;-91
2022/07/07 11:11:04;;;;;;;6.13;1.58;;;16.90;99.90;;;;;;6247152;23;20051;-91
2022/07/07 11:13:39;;;;;;;7.75;2.33;;;16.90;99.90;;;;;;6247661;23;20340;-91
2022/07/07 11:16:14;;;;;;;;;;;16.90;99.90;;;;;;6222082;23;20391;-89
2022/07/07 11:18:57;;;;;;;7.90;1.67;;;16.80;99.90;;;;;;6220583;23;19921;-91
2022/07/07 11:22:07;;;;;;;9.35;1.70;;;16.70;99.90;;;;;;6231365;22;20019;-91
2022/07/07 11:24:40;;;;;;;9.07;2.03;;;16.40;99.90;;;;;;6225697;23;20066;-88
2022/07/07 11:27:40;;;;;;;8.65;2.08;;;16.60;99.90;;;;;;6225261;23;20019;-91
2022/07/07 11:30:20;;;;;;;7.70;1.50;;;16.60;99.90;;;;;;6189029;23;20070;-94
2022/07/07 11:32:55;;;;;;;;;;;16.60;99.90;;;;;;6226371;23;20012;-89
2022/07/07 11:35:36;;;;;;;;;;;16.80;99.90;;;;;;6228752;23;19915;-91
2022/07/07 11:38:16;;;;;;;4.82;1.45;;;16.90;99.90;;;;;;6201006;23;19924;-91
2022/07/07 11:40:43;;;;;;;8.30;1.83;;;16.90;99.90;;;;;;6220564;23;20340;-90
2022/07/07 11:43:25;;;;;;;5.47;1.55;;;17.10;99.90;;;;;;6245850;23;20012;-90
2022/07/07 11:46:22;;;;;;;8.55;1.90;;;17.30;99.90;;;;;;6219917;23;20096;-92
2022/07/07 11:48:55;;;;;;;11.52;1.73;;;17.80;99.90;;;;;;6226227;22;20016;-90
2022/07/07 11:51:30;;;;;;;7.63;2.45;;;17.50;99.90;;;;;;6244645;23;20016;-89
2022/07/07 11:54:03;;;;;;;8.38;2.17;;;17.40;99.90;;;;;;6219103;23;20106;-89
2022/07/07 11:56:37;;;;;;;5.60;1.50;;;17.40;99.90;;;;;;6195285;23;20016;-93
2022/07/07 11:59:09;;;;;;;5.90;1.80;;;17.50;99.90;;;;;;6220414;23;20393;-90
2022/07/07 12:01:37;;;;;;;9.00;2.83;;;17.30;99.90;;;;;;6219802;23;20062;-91
2022/07/07 12:04:20;;;;;;;9.65;2.08;;;17.40;99.90;;;;;;6223357;23;20051;-89
2022/07/07 12:06:50;;;;;;;6.25;1.88;;;17.60;99.90;;;;;;6224660;23;20747;-92
2022/07/07 12:09:23;;;;;;;8.40;1.98;;;17.60;99.90;;;;;;6227607;23;20512;-89
2022/07/07 12:11:53;;;;;;;7.80;1.80;;;17.70;99.90;;;;;;6222070;23;20018;-90
2022/07/07 12:14:23;;;;;;;9.90;1.60;;;17.70;99.90;;;;;;6220462;23;20051;-91
2022/07/07 12:16:56;;;;;;;9.90;1.90;;;17.00;99.90;;;;;;6221042;23;20023;-90
2022/07/07 12:19:29;;;;;;;11.48;2.00;;;17.30;99.90;;;;;;6222531;23;20012;-93
2022/07/07 12:22:01;;;;;;;10.80;2.00;;;17.60;99.90;;;;;;6221375;23;20016;-92
2022/07/07 12:24:27;;;;;;;7.60;1.63;;;17.40;99.90;;;;;;6248884;23;20016;-88
2022/07/07 12:27:15;;;;;;;8.15;2.25;;;17.40;99.90;;;;;;6246733;22;20008;-91
2022/07/07 12:30:01;;;;;;;6.53;1.98;;;17.50;99.90;;;;;;6224806;22;20520;-89
2022/07/07 12:32:27;;;;;;;7.55;2.00;;;17.60;99.90;;;;;;6224430;23;20027;-93
2022/07/07 12:34:56;;;;;;;10.02;2.05;;;17.70;99.90;;;;;;6226123;23;20048;-90
2022/07/07 12:37:44;;;;;;;8.95;1.88;;;17.50;99.90;;;;;;6226291;23;20027;-88
2022/07/07 12:40:16;;;;;;;9.52;2.13;;;17.20;99.90;;;;;;6227348;23;20043;-89
2022/07/07 12:43:20;;;;;;;7.18;1.88;;;16.70;99.90;;;;;;6230230;23;20012;-90
2022/07/07 12:45:45;;;;;;;7.85;2.17;;;16.80;99.90;;;;;;6232731;23;20020;-91
2022/07/07 12:48:24;;;;;;;9.25;1.88;;;16.70;99.90;;;;;;6220328;23;20477;-90
2022/07/07 12:51:17;;;;;;;8.13;1.63;;;16.90;99.90;;;;;;6147295;23;20076;-90
2022/07/07 12:53:43;;;;;;;8.90;2.10;;;17.00;99.90;;;;;;6171090;23;20012;-92
2022/07/07 12:56:49;;;;;;;9.00;1.90;;;17.00;99.90;;;;;;6196817;23;20012;-90
2022/07/07 12:59:24;;;;;;;11.23;2.78;;;16.80;99.90;;;;;;6190901;23;20048;-90
2022/07/07 13:02:00;;;;;;;7.57;2.30;;;16.60;99.90;;;;;;6188940;23;20012;-90
2022/07/07 13:04:29;;;;;;;13.30;2.38;;;16.60;99.90;;;;;;6165634;23;20015;-95
2022/07/07 13:07:00;;;;;;;7.55;2.35;;;16.20;99.90;;;;;;6140767;23;20016;-90
2022/07/07 13:09:26;;;;;;;7.60;2.55;;;16.30;99.90;;;;;;6166609;23;20147;-92
2022/07/07 13:12:00;;;;;;;10.88;2.60;;;16.40;99.90;;;;;;6164843;23;20027;-90
2022/07/07 13:14:32;;;;;;;11.07;2.97;;;16.80;99.90;;;;;;6170255;23;20127;-91
2022/07/07 13:17:32;;;;;;;9.52;1.90;;;17.10;99.90;;;;;;6168116;23;20381;-93
2022/07/07 13:20:14;;;;;;;18.25;2.22;;;17.50;99.90;;;;;;6101296;23;20046;-91
2022/07/07 13:22:46;;;;;;;8.93;2.05;;;17.50;99.90;;;;;;6119202;23;20028;-91
2022/07/07 13:25:20;;;;;;;6.15;2.00;;;17.50;99.90;;;;;;6132049;23;20017;-92
2022/07/07 13:27:46;;;;;;;5.13;1.38;;;17.70;99.90;;;;;;6130209;23;20469;-90
2022/07/07 13:30:18;;;;;;;5.97;1.73;;;17.70;99.90;;;;;;6133389;23;20052;-90
2022/07/07 13:32:50;;;;;;;4.70;1.52;;;17.50;99.90;;;;;;6155528;23;20024;-91
2022/07/07 13:35:25;;;;;;;6.72;2.10;;;17.30;99.90;;;;;;6106631;23;20018;-88
2022/07/07 13:40:53;;;;;;;8.90;2.05;;;16.60;99.90;;;;;;6120492;23;20479;-92
2022/07/07 13:43:27;;;;;;;6.07;1.80;;;16.50;99.90;;;;;;6131805;23;20014;-91
2022/07/07 13:46:03;;;;;;;7.43;1.65;;;16.50;99.90;;;;;;6132493;23;20022;-91
2022/07/07 13:48:34;;;;;;;6.05;2.10;;;16.70;99.90;;;;;;6132282;23;20076;-92
2022/07/07 13:51:03;;;;;;;4.88;1.65;;;16.60;99.90;;;;;;6149791;23;20376;-91
2022/07/07 13:53:32;;;;;;;8.48;1.67;;;17.30;99.90;;;;;;6198826;23;20391;-92
2022/07/07 13:56:04;;;;;;;5.88;1.80;;;17.40;99.90;;;;;;6202387;23;20026;-91
2022/07/07 13:58:33;;;;;;;8.02;2.10;;;17.70;99.90;;;;;;6224660;23;20020;-91
2022/07/07 14:01:10;;;;;;;5.93;1.70;;;17.60;99.90;;;;;;6199184;23;20369;-90
2022/07/07 14:03:36;;;;;;;4.72;1.58;;;17.00;99.90;;;;;;6222708;23;20024;-91
2022/07/07 14:06:16;;;;;;;7.03;1.92;;;16.90;99.90;;;;;;6185459;23;20081;-91
2022/07/07 14:08:51;;;;;;;7.00;1.98;;;16.90;99.90;;;;;;6220628;23;20027;-92
2022/07/07 14:11:19;;;;;;;9.82;1.90;;;16.70;99.90;;;;;;6220970;22;20094;-93
2022/07/07 14:13:45;;;;;;;6.28;1.38;;;17.00;99.90;;;;;;6220588;23;20020;-92
2022/07/07 14:16:11;;;;;;;8.35;1.45;;;16.80;99.90;;;;;;6245524;23;20016;-90
2022/07/07 14:18:37;;;;;;;7.25;2.00;;;17.10;99.90;;;;;;6218152;22;20054;-91
2022/07/07 14:21:06;;;;;;;7.20;1.73;;;16.60;99.90;;;;;;6244320;23;20012;-93
2022/07/07 14:23:34;;;;;;;6.80;1.48;;;17.00;99.90;;;;;;6246268;23;20012;-91
2022/07/07 14:26:03;;;;;;;7.65;1.98;;;17.00;99.90;;;;;;6220151;23;20012;-89
2022/07/07 14:28:30;;;;;;;5.72;1.58;;;16.90;99.90;;;;;;6194497;23;20016;-90
2022/07/07 14:30:56;;;;;;;7.25;1.80;;;16.90;99.90;;;;;;6194311;23;20448;-90
2022/07/07 14:33:24;;;;;;;6.57;2.08;;;17.10;99.90;;;;;;6245792;23;20012;-91
2022/07/07 14:35:50;;;;;;;9.80;1.92;;;16.90;99.90;;;;;;6196068;23;20016;-92
2022/07/07 14:38:17;;;;;;;7.85;1.55;;;16.90;99.90;;;;;;6220497;22;20012;-90
2022/07/07 14:40:43;;;;;;;6.88;1.98;;;16.90;99.90;;;;;;6220484;23;20008;-88
2022/07/07 14:43:12;;;;;;;4.97;1.70;;;16.80;99.90;;;;;;6220331;23;20729;-93
2022/07/07 14:45:40;;;;;;;8.80;2.50;;;16.80;99.90;;;;;;6245202;23;20019;-92
2022/07/07 14:48:06;;;;;;;6.03;1.70;;;16.50;99.90;;;;;;6245811;23;20067;-89
2022/07/07 14:50:32;;;;;;;6.47;1.52;;;16.60;99.90;;;;;;6246391;22;20015;-93
2022/07/07 14:52:58;;;;;;;7.40;1.70;;;16.50;99.90;;;;;;6220228;23;20051;-90
2022/07/07 14:55:39;;;;;;;7.78;1.85;;;16.30;99.90;;;;;;6251126;23;20322;-90
2022/07/07 14:58:09;;;;;;;6.32;1.70;;;16.40;99.90;;;;;;6223089;23;20047;-92
2022/07/07 15:00:40;;;;;;;8.70;1.95;;;17.10;99.90;;;;;;6228015;22;20117;-90
2022/07/07 15:03:06;;;;;;;7.88;1.85;;;16.70;99.90;;;;;;6248225;23;20023;-89
2022/07/07 15:05:32;;;;;;;8.35;2.30;;;16.60;99.90;;;;;;6195513;23;20053;-91